createdAt,value
2019-06-15T00:00:36.126Z,18.06
2019-06-15T00:03:04.080Z,18.11
2019-06-15T00:05:31.162Z,18.13
2019-06-15T00:07:58.362Z,18.17
2019-06-15T00:10:25.564Z,18.11
2019-06-15T00:12:52.712Z,18.08
2019-06-15T00:15:20.020Z,18.00
2019-06-15T00:17:47.250Z,17.93
2019-06-15T00:20:14.594Z,17.87
2019-06-15T00:22:41.740Z,17.83
2019-06-15T00:25:09.176Z,17.79
2019-06-15T00:27:36.248Z,17.77
2019-06-15T00:30:04.201Z,17.76
2019-06-15T00:32:31.512Z,17.76
2019-06-15T00:34:58.688Z,17.78
2019-06-15T00:37:25.869Z,17.78
2019-06-15T00:39:53.144Z,17.79
2019-06-15T00:42:20.907Z,17.77
2019-06-15T00:44:48.089Z,17.77
2019-06-15T00:47:15.289Z,17.78
2019-06-15T00:49:42.568Z,17.79
2019-06-15T00:52:09.756Z,17.76
2019-06-15T00:54:49.701Z,17.74
2019-06-15T00:57:06.004Z,17.72
2019-06-15T00:59:33.308Z,17.83
2019-06-15T01:02:00.828Z,17.78
2019-06-15T01:04:28.225Z,17.74
2019-06-15T01:06:55.428Z,17.68
2019-06-15T01:09:22.505Z,17.65
2019-06-15T01:11:49.659Z,17.60
2019-06-15T01:14:17.050Z,17.56
2019-06-15T01:16:44.272Z,17.60
2019-06-15T01:19:11.447Z,17.55
2019-06-15T01:21:38.660Z,17.65
2019-06-15T01:24:06.278Z,17.62
2019-06-15T01:26:33.431Z,17.49
2019-06-15T01:29:00.620Z,17.35
2019-06-15T01:31:28.435Z,17.29
2019-06-15T01:33:55.606Z,17.25
2019-06-15T01:36:22.792Z,17.23
2019-06-15T01:38:50.112Z,17.16
2019-06-15T01:41:17.179Z,17.10
2019-06-15T01:43:44.967Z,17.06
2019-06-15T01:46:12.138Z,17.09
2019-06-15T01:48:39.288Z,17.21
2019-06-15T01:51:06.362Z,17.20
2019-06-15T01:53:33.584Z,17.08
2019-06-15T01:56:00.787Z,17.10
2019-06-15T01:58:28.409Z,17.02
2019-06-15T02:00:55.592Z,16.86
2019-06-15T02:03:23.109Z,16.72
2019-06-15T02:05:50.262Z,16.60
2019-06-15T02:08:18.929Z,16.50
2019-06-15T02:10:46.168Z,16.42
2019-06-15T02:13:13.415Z,16.34
2019-06-15T02:15:40.709Z,16.28
2019-06-15T02:18:07.899Z,16.23
2019-06-15T02:20:35.129Z,16.27
2019-06-15T02:23:02.528Z,16.26
2019-06-15T02:25:35.930Z,16.19
2019-06-15T02:27:59.034Z,16.12
2019-06-15T02:30:27.910Z,16.08
2019-06-15T02:32:56.181Z,16.01
2019-06-15T02:35:23.363Z,15.95
2019-06-15T02:37:50.571Z,15.91
2019-06-15T02:40:18.254Z,15.87
2019-06-15T02:42:45.782Z,15.84
2019-06-15T02:45:12.967Z,15.85
2019-06-15T02:47:40.053Z,15.91
2019-06-15T02:50:07.233Z,15.90
2019-06-15T02:52:34.441Z,15.84
2019-06-15T02:55:01.644Z,15.82
2019-06-15T02:57:29.315Z,15.80
2019-06-15T02:59:56.802Z,15.74
2019-06-15T03:02:24.195Z,15.66
2019-06-15T03:04:51.726Z,15.62
2019-06-15T03:07:18.927Z,15.57
2019-06-15T03:09:46.486Z,15.53
2019-06-15T03:12:14.156Z,15.52
2019-06-15T03:14:42.326Z,15.50
2019-06-15T03:17:09.484Z,15.53
2019-06-15T03:19:36.700Z,15.64
2019-06-15T03:22:06.495Z,15.79
2019-06-15T03:24:33.035Z,15.75
2019-06-15T03:27:00.219Z,15.75
2019-06-15T03:29:27.530Z,15.81
2019-06-15T03:31:54.688Z,15.96
2019-06-15T03:34:21.864Z,16.10
2019-06-15T03:36:49.086Z,16.22
2019-06-15T03:39:16.244Z,16.36
2019-06-15T03:41:43.423Z,16.52
2019-06-15T03:44:10.939Z,16.67
2019-06-15T03:46:38.279Z,16.79
2019-06-15T03:49:05.833Z,16.93
2019-06-15T03:51:33.042Z,17.07
2019-06-15T03:54:00.532Z,17.26
2019-06-15T03:56:27.608Z,17.34
2019-06-15T03:58:54.787Z,17.41
2019-06-15T04:01:35.230Z,17.52
2019-06-15T04:04:02.732Z,17.66
2019-06-15T04:06:29.939Z,17.80
2019-06-15T04:08:57.124Z,17.93
2019-06-15T04:11:24.445Z,18.02
2019-06-15T04:13:51.634Z,18.07
2019-06-15T04:16:19.112Z,18.13
2019-06-15T04:18:46.319Z,18.18
2019-06-15T04:21:13.480Z,18.29
2019-06-15T04:23:40.680Z,18.43
2019-06-15T04:26:07.866Z,18.58
2019-06-15T04:28:35.065Z,18.75
2019-06-15T04:31:02.274Z,18.98
2019-06-15T04:33:29.456Z,19.32
2019-06-15T04:35:56.508Z,19.66
2019-06-15T04:38:23.950Z,20.44
2019-06-15T04:40:51.129Z,21.39
2019-06-15T04:43:18.272Z,22.16
2019-06-15T04:45:45.547Z,22.76
2019-06-15T04:48:12.838Z,23.45
2019-06-15T04:50:39.970Z,24.09
2019-06-15T04:53:07.120Z,24.70
2019-06-15T04:55:34.643Z,25.25
2019-06-15T04:58:01.804Z,25.84
2019-06-15T05:00:29.075Z,26.45
2019-06-15T05:02:56.287Z,26.89
2019-06-15T05:05:23.464Z,27.49
2019-06-15T05:07:50.624Z,28.15
2019-06-15T05:10:17.862Z,29.00
2019-06-15T05:12:45.028Z,29.64
2019-06-15T05:15:12.224Z,30.03
2019-06-15T05:17:39.313Z,30.51
2019-06-15T05:20:07.078Z,31.22
2019-06-15T05:22:34.332Z,31.92
2019-06-15T05:25:01.470Z,32.47
2019-06-15T05:27:28.636Z,32.80
2019-06-15T05:29:56.655Z,32.96
2019-06-15T05:32:24.462Z,33.80
2019-06-15T05:34:52.556Z,34.48
2019-06-15T05:37:19.849Z,35.00
2019-06-15T05:39:47.037Z,35.63
2019-06-15T05:42:15.286Z,36.81
2019-06-15T05:44:42.498Z,38.19
2019-06-15T05:47:09.708Z,38.93
2019-06-15T05:49:36.980Z,38.95
2019-06-15T05:52:04.192Z,36.07
2019-06-15T05:54:31.397Z,35.05
2019-06-15T05:56:58.576Z,35.27
2019-06-15T05:59:26.234Z,33.03
2019-06-15T06:01:53.361Z,30.17
2019-06-15T06:04:20.593Z,28.73
2019-06-15T06:06:47.872Z,27.72
2019-06-15T06:09:15.182Z,26.77
2019-06-15T06:11:43.487Z,26.28
2019-06-15T06:14:11.785Z,26.23
2019-06-15T06:16:39.040Z,26.67
2019-06-15T06:19:06.411Z,27.97
2019-06-15T06:21:33.846Z,28.95
2019-06-15T06:24:01.080Z,28.80
2019-06-15T06:26:28.431Z,28.44
2019-06-15T06:28:57.519Z,30.04
2019-06-15T06:31:24.750Z,33.11
2019-06-15T06:33:51.999Z,35.80
2019-06-15T06:36:19.179Z,38.13
2019-06-15T06:38:46.688Z,40.46
2019-06-15T06:41:13.845Z,42.81
2019-06-15T06:43:41.039Z,44.82
2019-06-15T06:46:08.249Z,45.14
2019-06-15T06:48:35.452Z,44.44
2019-06-15T06:51:02.577Z,43.55
2019-06-15T06:53:29.919Z,43.24
2019-06-15T06:55:57.139Z,43.20
2019-06-15T06:58:24.320Z,44.23
2019-06-15T07:00:51.512Z,45.46
2019-06-15T07:03:18.857Z,46.26
2019-06-15T07:05:45.913Z,47.99
2019-06-15T07:08:13.873Z,49.20
2019-06-15T07:10:41.071Z,50.60
2019-06-15T07:13:08.248Z,51.37
2019-06-15T07:15:35.876Z,51.73
2019-06-15T07:18:02.932Z,52.28
2019-06-15T07:20:30.021Z,52.07
2019-06-15T07:22:57.211Z,51.35
2019-06-15T07:25:24.681Z,50.10
2019-06-15T07:28:06.945Z,50.21
2019-06-15T07:30:21.056Z,51.89
2019-06-15T07:32:48.205Z,50.68
2019-06-15T07:35:15.589Z,47.23
2019-06-15T07:37:42.893Z,44.84
2019-06-15T07:40:10.595Z,43.95
2019-06-15T07:42:39.458Z,44.05
2019-06-15T07:45:07.499Z,45.91
2019-06-15T07:47:34.706Z,47.70
2019-06-15T07:50:01.982Z,46.45
2019-06-15T07:52:29.458Z,45.56
2019-06-15T07:54:56.627Z,45.90
2019-06-15T07:57:23.819Z,47.25
2019-06-15T07:59:51.480Z,47.46
2019-06-15T08:02:18.672Z,46.16
2019-06-15T08:04:45.896Z,45.94
2019-06-15T08:07:13.182Z,43.56
2019-06-15T08:09:40.708Z,41.59
2019-06-15T08:12:07.857Z,40.49
2019-06-15T08:14:35.092Z,38.88
2019-06-15T08:17:02.360Z,39.79
2019-06-15T08:19:29.559Z,43.07
2019-06-15T08:21:56.938Z,45.61
2019-06-15T08:24:24.136Z,46.04
2019-06-15T08:26:51.500Z,44.58
2019-06-15T08:29:18.706Z,46.09
2019-06-15T08:31:45.998Z,48.45
2019-06-15T08:34:13.175Z,48.19
2019-06-15T08:36:41.118Z,45.76
2019-06-15T08:39:08.279Z,43.23
2019-06-15T08:41:35.462Z,41.51
2019-06-15T08:44:03.484Z,40.06
2019-06-15T08:46:30.754Z,38.50
2019-06-15T08:48:58.047Z,36.19
2019-06-15T08:51:25.402Z,34.26
2019-06-15T08:53:52.613Z,32.81
2019-06-15T08:56:19.830Z,31.89
2019-06-15T08:58:55.497Z,31.43
2019-06-15T09:01:16.618Z,30.92
2019-06-15T09:03:44.264Z,31.51
2019-06-15T09:06:11.532Z,32.37
2019-06-15T09:08:38.891Z,32.76
2019-06-15T09:11:06.096Z,33.00
2019-06-15T09:13:33.579Z,32.64
2019-06-15T09:16:00.896Z,32.14
2019-06-15T09:18:28.095Z,31.80
2019-06-15T09:20:55.302Z,33.39
2019-06-15T09:23:22.702Z,36.24
2019-06-15T09:25:49.924Z,36.65
2019-06-15T09:28:17.403Z,35.21
2019-06-15T09:30:45.172Z,34.47
2019-06-15T09:33:12.498Z,35.35
2019-06-15T09:35:39.696Z,36.36
2019-06-15T09:38:06.905Z,36.52
2019-06-15T09:40:34.245Z,35.86
2019-06-15T09:43:01.628Z,34.88
2019-06-15T09:45:32.781Z,33.60
2019-06-15T09:47:58.271Z,34.59
2019-06-15T09:50:25.470Z,34.56
2019-06-15T09:52:52.675Z,33.64
2019-06-15T09:55:20.117Z,32.54
2019-06-15T09:57:47.716Z,31.54
2019-06-15T10:00:14.990Z,30.56
2019-06-15T10:02:42.528Z,29.48
2019-06-15T10:05:10.126Z,28.95
2019-06-15T10:07:37.766Z,28.61
2019-06-15T10:10:05.805Z,28.47
2019-06-15T10:12:33.092Z,28.20
2019-06-15T10:15:00.331Z,27.75
2019-06-15T10:17:27.414Z,27.47
2019-06-15T10:19:54.650Z,27.40
2019-06-15T10:22:21.805Z,27.73
2019-06-15T10:24:49.042Z,27.95
2019-06-15T10:27:16.371Z,27.86
2019-06-15T10:29:43.458Z,27.78
2019-06-15T10:32:10.658Z,27.91
2019-06-15T10:34:37.877Z,28.06
2019-06-15T10:37:05.184Z,28.07
2019-06-15T10:39:32.480Z,28.02
2019-06-15T10:42:00.024Z,28.27
2019-06-15T10:44:27.801Z,28.39
2019-06-15T10:46:55.151Z,28.33
2019-06-15T10:49:22.789Z,28.33
2019-06-15T10:51:49.980Z,28.68
2019-06-15T10:54:17.544Z,29.30
2019-06-15T10:56:45.322Z,29.80
2019-06-15T10:59:15.999Z,30.20
2019-06-15T11:01:43.267Z,30.34
2019-06-15T11:04:10.456Z,29.70
2019-06-15T11:06:37.751Z,28.81
2019-06-15T11:09:07.429Z,28.15
2019-06-15T11:11:34.720Z,27.90
2019-06-15T11:14:02.149Z,28.07
2019-06-15T11:16:29.391Z,28.53
2019-06-15T11:18:56.580Z,29.08
2019-06-15T11:21:23.737Z,28.99
2019-06-15T11:23:50.971Z,28.58
2019-06-15T11:26:18.165Z,28.56
2019-06-15T11:28:45.553Z,28.82
2019-06-15T11:31:12.720Z,29.20
2019-06-15T11:33:40.031Z,29.11
2019-06-15T11:36:07.194Z,28.84
2019-06-15T11:38:34.389Z,28.61
2019-06-15T11:41:02.294Z,28.70
2019-06-15T11:43:29.524Z,28.97
2019-06-15T11:45:56.952Z,29.44
2019-06-15T11:48:24.555Z,29.99
2019-06-15T11:50:51.574Z,30.28
2019-06-15T11:53:18.836Z,30.52
2019-06-15T11:55:46.602Z,30.72
2019-06-15T11:58:13.801Z,30.60
2019-06-15T12:00:40.958Z,30.74
2019-06-15T12:03:08.288Z,30.72
2019-06-15T12:05:35.488Z,30.69
2019-06-15T12:08:02.836Z,30.44
2019-06-15T12:10:30.328Z,30.38
2019-06-15T12:12:57.516Z,30.43
2019-06-15T12:15:24.863Z,30.86
2019-06-15T12:17:52.155Z,30.85
2019-06-15T12:20:19.403Z,30.09
2019-06-15T12:22:47.363Z,29.49
2019-06-15T12:25:15.213Z,29.48
2019-06-15T12:27:42.452Z,29.60
2019-06-15T12:30:11.853Z,29.45
2019-06-15T12:32:39.114Z,29.09
2019-06-15T12:35:06.806Z,29.33
2019-06-15T12:37:34.418Z,29.79
2019-06-15T12:40:01.743Z,30.38
2019-06-15T12:42:29.057Z,30.72
2019-06-15T12:44:56.355Z,30.77
2019-06-15T12:47:23.976Z,30.46
2019-06-15T12:49:51.309Z,30.28
2019-06-15T12:52:18.506Z,30.38
2019-06-15T12:54:45.706Z,30.47
2019-06-15T12:57:12.864Z,30.65
2019-06-15T12:59:40.595Z,31.11
2019-06-15T13:02:07.868Z,31.48
2019-06-15T13:04:35.039Z,31.75
2019-06-15T13:07:02.308Z,31.79
2019-06-15T13:09:29.402Z,31.96
2019-06-15T13:11:56.651Z,32.11
2019-06-15T13:14:23.849Z,32.09
2019-06-15T13:16:51.538Z,31.82
2019-06-15T13:19:19.432Z,31.44
2019-06-15T13:21:46.752Z,31.32
2019-06-15T13:24:14.497Z,31.38
2019-06-15T13:26:41.663Z,31.19
2019-06-15T13:29:08.922Z,31.17
2019-06-15T13:31:36.630Z,31.27
2019-06-15T13:34:04.003Z,31.59
2019-06-15T13:36:31.268Z,31.75
2019-06-15T13:38:58.482Z,31.70
2019-06-15T13:41:25.746Z,31.91
2019-06-15T13:43:52.910Z,32.12
2019-06-15T13:46:21.127Z,32.21
2019-06-15T13:48:48.412Z,32.31
2019-06-15T13:51:15.981Z,32.33
2019-06-15T13:53:43.237Z,32.21
2019-06-15T13:56:10.524Z,32.08
2019-06-15T13:58:37.694Z,31.81
2019-06-15T14:01:04.930Z,31.64
2019-06-15T14:03:32.085Z,31.24
2019-06-15T14:05:59.304Z,31.15
2019-06-15T14:08:26.548Z,31.37
2019-06-15T14:10:53.924Z,31.80
2019-06-15T14:13:21.434Z,31.95
2019-06-15T14:15:48.748Z,31.93
2019-06-15T14:18:15.934Z,31.68
2019-06-15T14:20:43.310Z,31.48
2019-06-15T14:23:10.575Z,31.45
2019-06-15T14:25:38.674Z,31.19
2019-06-15T14:28:05.885Z,31.27
2019-06-15T14:30:33.277Z,31.42
2019-06-15T14:33:00.471Z,31.55
2019-06-15T14:35:27.962Z,31.41
2019-06-15T14:37:55.088Z,31.23
2019-06-15T14:40:22.599Z,31.24
2019-06-15T14:42:49.829Z,31.23
2019-06-15T14:45:17.518Z,31.32
2019-06-15T14:47:44.670Z,31.52
2019-06-15T14:50:11.945Z,31.64
2019-06-15T14:52:39.148Z,31.91
2019-06-15T14:55:07.233Z,32.13
2019-06-15T14:57:36.128Z,32.19
2019-06-15T15:00:08.529Z,32.02
2019-06-15T15:02:37.227Z,31.98
2019-06-15T15:05:06.864Z,31.77
2019-06-15T15:07:36.589Z,31.54
2019-06-15T15:10:07.062Z,31.38
2019-06-15T15:12:33.695Z,31.10
2019-06-15T15:15:01.140Z,30.91
2019-06-15T15:17:28.695Z,30.80
2019-06-15T15:19:57.429Z,30.58
2019-06-15T15:22:26.764Z,30.35
2019-06-15T15:24:55.969Z,30.20
2019-06-15T15:27:23.105Z,30.00
2019-06-15T15:29:51.455Z,29.81
2019-06-15T15:32:27.431Z,29.76
2019-06-15T15:34:47.944Z,29.70
2019-06-15T15:37:15.927Z,29.65
2019-06-15T15:39:43.244Z,29.75
2019-06-15T15:42:10.455Z,29.84
2019-06-15T15:44:38.094Z,29.86
2019-06-15T15:47:07.082Z,29.89
2019-06-15T15:49:36.645Z,29.97
2019-06-15T15:52:04.125Z,29.82
2019-06-15T15:54:31.492Z,29.59
2019-06-15T15:56:58.833Z,29.55
2019-06-15T15:59:26.618Z,29.57
2019-06-15T16:01:53.808Z,29.59
2019-06-15T16:04:21.911Z,29.56
2019-06-15T16:06:49.226Z,29.30
2019-06-15T16:09:17.005Z,28.97
2019-06-15T16:11:46.293Z,28.68
2019-06-15T16:14:16.295Z,28.42
2019-06-15T16:16:42.795Z,28.36
2019-06-15T16:19:09.981Z,28.40
2019-06-15T16:21:37.493Z,28.36
2019-06-15T16:24:07.137Z,28.36
2019-06-15T16:26:33.842Z,28.42
2019-06-15T16:29:01.163Z,28.39
2019-06-15T16:31:29.260Z,28.44
2019-06-15T16:33:56.742Z,28.43
2019-06-15T16:36:24.043Z,28.26
2019-06-15T16:38:51.768Z,28.10
2019-06-15T16:41:18.978Z,27.91
2019-06-15T16:43:46.267Z,27.72
2019-06-15T16:46:13.460Z,27.62
2019-06-15T16:48:40.868Z,27.60
2019-06-15T16:51:08.048Z,27.58
2019-06-15T16:53:37.189Z,27.47
2019-06-15T16:56:06.121Z,27.35
2019-06-15T16:58:36.180Z,27.20
2019-06-15T17:01:02.943Z,26.93
2019-06-15T17:03:30.450Z,26.78
2019-06-15T17:05:57.640Z,26.72
2019-06-15T17:08:24.991Z,26.63
2019-06-15T17:10:53.099Z,26.50
2019-06-15T17:13:20.313Z,26.34
2019-06-15T17:15:47.823Z,26.24
2019-06-15T17:18:15.100Z,26.10
2019-06-15T17:20:47.197Z,26.06
2019-06-15T17:23:16.375Z,25.98
2019-06-15T17:25:43.443Z,25.85
2019-06-15T17:28:10.718Z,25.78
2019-06-15T17:30:37.894Z,25.71
2019-06-15T17:33:08.200Z,25.59
2019-06-15T17:35:36.157Z,25.44
2019-06-15T17:38:03.480Z,25.43
2019-06-15T17:40:30.551Z,25.29
2019-06-15T17:42:57.918Z,25.24
2019-06-15T17:45:26.667Z,25.17
2019-06-15T17:47:56.869Z,25.12
2019-06-15T17:50:29.679Z,25.11
2019-06-15T17:52:56.867Z,25.11
2019-06-15T17:55:26.787Z,25.14
2019-06-15T17:57:53.254Z,24.95
2019-06-15T18:00:20.949Z,24.76
2019-06-15T18:02:48.244Z,24.53
2019-06-15T18:05:17.978Z,24.34
2019-06-15T18:07:47.001Z,24.15
2019-06-15T18:10:16.011Z,24.01
2019-06-15T18:12:43.292Z,23.85
2019-06-15T18:15:10.771Z,23.70
2019-06-15T18:17:37.940Z,23.64
2019-06-15T18:20:06.756Z,23.52
2019-06-15T18:22:36.212Z,23.43
2019-06-15T18:25:06.417Z,23.31
2019-06-15T18:27:33.970Z,23.22
2019-06-15T18:30:01.132Z,23.08
2019-06-15T18:32:29.086Z,23.13
2019-06-15T18:34:56.621Z,23.13
2019-06-15T18:37:23.775Z,23.05
2019-06-15T18:39:51.056Z,22.89
2019-06-15T18:42:18.379Z,22.75
2019-06-15T18:44:47.774Z,22.66
2019-06-15T18:47:16.545Z,22.58
2019-06-15T18:49:43.998Z,22.50
2019-06-15T18:52:11.170Z,22.34
2019-06-15T18:54:38.333Z,22.22
2019-06-15T18:57:07.431Z,22.16
2019-06-15T18:59:36.625Z,22.06
2019-06-15T19:02:06.533Z,21.98
2019-06-15T19:04:33.281Z,21.85
2019-06-15T19:07:00.911Z,21.76
2019-06-15T19:09:27.989Z,21.63
2019-06-15T19:11:56.612Z,21.56
2019-06-15T19:14:23.945Z,21.48
2019-06-15T19:16:51.511Z,21.35
2019-06-15T19:19:18.821Z,21.28
2019-06-15T19:21:46.258Z,21.34
2019-06-15T19:24:16.574Z,21.32
2019-06-15T19:26:43.004Z,21.21
2019-06-15T19:29:10.877Z,21.13
2019-06-15T19:31:38.099Z,21.05
2019-06-15T19:34:06.785Z,20.96
2019-06-15T19:36:36.494Z,20.86
2019-06-15T19:39:06.261Z,20.80
2019-06-15T19:41:33.505Z,20.74
2019-06-15T19:44:00.716Z,20.68
2019-06-15T19:46:27.905Z,20.60
2019-06-15T19:48:56.033Z,20.57
2019-06-15T19:51:28.528Z,20.47
2019-06-15T19:53:53.039Z,20.37
2019-06-15T19:56:20.267Z,20.33
2019-06-15T19:58:47.480Z,20.33
2019-06-15T20:01:16.765Z,20.24
2019-06-15T20:03:46.333Z,20.20
2019-06-15T20:06:13.397Z,20.22
2019-06-15T20:08:40.717Z,20.13
2019-06-15T20:11:08.483Z,20.06
2019-06-15T20:13:37.077Z,19.98
2019-06-15T20:16:05.264Z,19.93
2019-06-15T20:18:33.654Z,19.92
2019-06-15T20:21:00.728Z,19.85
2019-06-15T20:23:28.886Z,19.80
2019-06-15T20:25:56.339Z,19.74
2019-06-15T20:28:23.552Z,19.80
2019-06-15T20:30:50.725Z,19.80
2019-06-15T20:33:17.956Z,19.70
2019-06-15T20:35:47.160Z,19.64
2019-06-15T20:38:16.082Z,19.54
2019-06-15T20:40:43.523Z,19.42
2019-06-15T20:43:10.634Z,19.32
2019-06-15T20:45:38.178Z,19.27
2019-06-15T20:48:06.776Z,19.21
2019-06-15T20:50:36.282Z,19.15
2019-06-15T20:53:05.851Z,19.18
2019-06-15T20:55:33.148Z,19.16
2019-06-15T20:58:00.487Z,19.11
2019-06-15T21:00:27.639Z,19.05
2019-06-15T21:02:56.323Z,18.97
2019-06-15T21:05:34.819Z,18.92
2019-06-15T21:07:52.908Z,18.89
2019-06-15T21:10:20.144Z,18.93
2019-06-15T21:12:47.703Z,18.90
2019-06-15T21:15:15.347Z,18.79
2019-06-15T21:17:42.572Z,18.74
2019-06-15T21:20:10.133Z,18.78
2019-06-15T21:22:37.672Z,18.75
2019-06-15T21:25:06.833Z,18.76
2019-06-15T21:27:36.658Z,18.72
2019-06-15T21:30:06.806Z,18.69
2019-06-15T21:32:33.805Z,18.64
2019-06-15T21:35:01.314Z,18.54
2019-06-15T21:37:29.497Z,18.49
2019-06-15T21:39:56.872Z,18.40
2019-06-15T21:42:26.470Z,18.34
2019-06-15T21:44:53.166Z,18.27
2019-06-15T21:47:20.574Z,18.22
2019-06-15T21:49:47.754Z,18.19
2019-06-15T21:52:16.667Z,18.14
2019-06-15T21:54:43.984Z,18.12
2019-06-15T21:57:11.683Z,18.07
2019-06-15T21:59:38.848Z,18.08
2019-06-15T22:02:07.067Z,18.12
2019-06-15T22:04:36.643Z,18.16
2019-06-15T22:07:06.271Z,18.09
2019-06-15T22:09:32.833Z,18.03
2019-06-15T22:11:59.896Z,17.99
2019-06-15T22:14:27.072Z,17.99
2019-06-15T22:16:56.738Z,17.97
2019-06-15T22:19:23.376Z,17.96
2019-06-15T22:21:51.263Z,17.99
2019-06-15T22:24:18.802Z,18.03
2019-06-15T22:26:46.731Z,18.15
2019-06-15T22:29:16.765Z,18.26
2019-06-15T22:31:43.787Z,18.33
2019-06-15T22:34:10.961Z,18.37
2019-06-15T22:36:38.259Z,18.44
2019-06-15T22:39:06.443Z,18.42
2019-06-15T22:41:36.089Z,18.42
2019-06-15T22:44:03.104Z,18.37
2019-06-15T22:46:30.523Z,18.34
2019-06-15T22:48:57.752Z,18.30
2019-06-15T22:51:27.325Z,18.27
2019-06-15T22:53:56.380Z,18.27
2019-06-15T22:56:23.113Z,18.27
2019-06-15T22:58:50.206Z,18.27
2019-06-15T23:01:17.411Z,18.27
2019-06-15T23:03:46.588Z,18.26
2019-06-15T23:06:15.971Z,18.26
2019-06-15T23:08:43.224Z,18.26
2019-06-15T23:11:10.475Z,18.23
2019-06-15T23:13:37.669Z,18.23
2019-06-15T23:16:04.945Z,18.22
2019-06-15T23:18:32.422Z,18.23
2019-06-15T23:20:59.601Z,18.23
2019-06-15T23:23:27.211Z,18.23
2019-06-15T23:25:56.647Z,18.20
2019-06-15T23:28:23.730Z,18.22
2019-06-15T23:30:51.234Z,18.24
2019-06-15T23:33:18.715Z,18.25
2019-06-15T23:35:52.047Z,18.25
2019-06-15T23:38:19.646Z,18.25
2019-06-15T23:40:47.556Z,18.23
2019-06-15T23:43:16.745Z,18.24
2019-06-15T23:45:43.955Z,18.29
2019-06-15T23:48:11.127Z,18.37
2019-06-15T23:50:38.418Z,18.39
2019-06-15T23:53:05.830Z,18.42
2019-06-15T23:55:33.093Z,18.42
2019-06-15T23:58:00.356Z,18.49
